Terminal Aerodrome Forecast
Issued by NWS Cleveland, OH

Home | Current Version | Previous Version | Text Only | Print | Product List | Glossary On
Versions: 1 2 3 4 5 6 7 8 9 10 11 12 13 14 15 16 17 18 19 20 21 22 23 24 25 26 27 28 29
000
FTUS41 KCLE 301100
TAFCLE
TAF
KCLE 301136Z 3012/0118 29006KT 5SM -RA BR SCT015 OVC050
      TEMPO 3012/3013 2SM TSRA BR OVC007CB
     FM301300 33008KT 5SM BR SCT007 OVC040
      TEMPO 3013/3015 2SM -RA BR OVC007
     FM301500 36008KT P6SM OVC007
     FM301900 36008KT P6SM BKN015 OVC025
     FM010700 02004KT 4SM BR OVC003
     FM011530 02006KT P6SM OVC010=

USA.gov is the U.S. government's official web portal to all federal, state and local government web resources and services.